createdAt,value
2018-12-21T00:00:25.560Z,990.58
2018-12-21T00:01:25.719Z,990.56
2018-12-21T00:02:25.926Z,990.59
2018-12-21T00:03:26.073Z,990.58
2018-12-21T00:04:26.237Z,990.57
2018-12-21T00:05:26.402Z,990.53
2018-12-21T00:06:26.572Z,990.51
2018-12-21T00:07:26.750Z,990.52
2018-12-21T00:08:26.917Z,990.48
2018-12-21T00:09:27.081Z,990.54
2018-12-21T00:10:27.250Z,990.53
2018-12-21T00:11:27.458Z,990.54
2018-12-21T00:12:27.575Z,990.51
2018-12-21T00:13:27.742Z,990.51
2018-12-21T00:14:27.907Z,990.45
2018-12-21T00:15:28.066Z,990.46
2018-12-21T00:16:28.237Z,990.44
2018-12-21T00:17:34.545Z,990.42
2018-12-21T00:18:28.618Z,990.45
2018-12-21T00:19:28.688Z,990.42
2018-12-21T00:20:28.839Z,990.43
2018-12-21T00:21:29.041Z,990.44
2018-12-21T00:22:29.214Z,990.40
2018-12-21T00:23:29.374Z,990.43
2018-12-21T00:24:29.559Z,990.39
2018-12-21T00:25:29.694Z,990.37
2018-12-21T00:26:29.863Z,990.39
2018-12-21T00:27:30.030Z,990.37
2018-12-21T00:28:30.315Z,990.38
2018-12-21T00:29:30.394Z,990.35
2018-12-21T00:30:30.563Z,990.32
2018-12-21T00:31:30.708Z,990.32
2018-12-21T00:32:30.874Z,990.23
2018-12-21T00:33:31.042Z,990.25
2018-12-21T00:34:31.207Z,990.27
2018-12-21T00:35:31.411Z,990.18
2018-12-21T00:36:31.578Z,990.18
2018-12-21T00:37:31.745Z,990.10
2018-12-21T00:38:31.901Z,990.12
2018-12-21T00:39:32.068Z,990.08
2018-12-21T00:40:32.238Z,990.09
2018-12-21T00:41:32.406Z,990.10
2018-12-21T00:42:32.598Z,990.11
2018-12-21T00:43:32.971Z,990.10
2018-12-21T00:44:32.942Z,990.08
2018-12-21T00:45:33.112Z,990.14
2018-12-21T00:46:33.280Z,990.14
2018-12-21T00:47:33.468Z,990.13
2018-12-21T00:48:33.631Z,990.14
2018-12-21T00:49:33.798Z,990.15
2018-12-21T00:50:33.958Z,990.14
2018-12-21T00:51:34.200Z,990.20
2018-12-21T00:52:34.240Z,990.16
2018-12-21T00:53:34.439Z,990.19
2018-12-21T00:54:34.598Z,990.17
2018-12-21T00:55:34.886Z,990.15
2018-12-21T00:56:34.933Z,990.15
2018-12-21T00:57:35.104Z,990.16
2018-12-21T00:58:35.268Z,990.14
2018-12-21T00:59:35.428Z,990.13
2018-12-21T01:00:35.613Z,990.13
2018-12-21T01:01:35.754Z,990.16
2018-12-21T01:02:35.917Z,990.18
2018-12-21T01:03:36.075Z,990.18
2018-12-21T01:04:36.245Z,990.16
2018-12-21T01:05:36.406Z,990.18
2018-12-21T01:06:36.585Z,990.20
2018-12-21T01:07:36.781Z,990.16
2018-12-21T01:08:36.955Z,990.15
2018-12-21T01:09:37.111Z,990.14
2018-12-21T01:10:37.269Z,990.10
2018-12-21T01:11:37.438Z,990.16
2018-12-21T01:12:37.592Z,990.09
2018-12-21T01:13:37.761Z,990.08
2018-12-21T01:14:37.931Z,990.11
2018-12-21T01:15:38.105Z,990.06
2018-12-21T01:16:38.261Z,990.10
2018-12-21T01:17:38.419Z,990.07
2018-12-21T01:18:38.592Z,990.05
2018-12-21T01:19:38.753Z,990.02
2018-12-21T01:20:38.928Z,990.09
2018-12-21T01:21:39.247Z,990.09
2018-12-21T01:22:39.262Z,990.08
2018-12-21T01:23:39.437Z,990.08
2018-12-21T01:24:39.602Z,990.11
2018-12-21T01:25:39.784Z,990.15
2018-12-21T01:26:39.955Z,990.20
2018-12-21T01:27:40.127Z,990.24
2018-12-21T01:28:40.289Z,990.29
2018-12-21T01:29:40.456Z,990.29
2018-12-21T01:30:40.627Z,990.31
2018-12-21T01:31:40.787Z,990.34
2018-12-21T01:32:40.953Z,990.27
2018-12-21T01:33:41.118Z,990.23
2018-12-21T01:34:41.281Z,990.19
2018-12-21T01:35:41.464Z,990.20
2018-12-21T01:36:41.634Z,990.14
2018-12-21T01:37:41.795Z,990.12
2018-12-21T01:38:41.959Z,990.13
2018-12-21T01:39:42.124Z,990.14
2018-12-21T01:40:42.290Z,990.13
2018-12-21T01:41:42.452Z,990.16
2018-12-21T01:42:42.620Z,990.13
2018-12-21T01:43:42.783Z,990.11
2018-12-21T01:44:42.951Z,990.08
2018-12-21T01:45:43.128Z,990.08
2018-12-21T01:46:43.284Z,990.04
2018-12-21T01:47:43.449Z,990.00
2018-12-21T01:48:43.606Z,989.98
2018-12-21T01:49:43.769Z,989.98
2018-12-21T01:50:43.937Z,990.00
2018-12-21T01:51:47.261Z,990.01
2018-12-21T01:52:44.263Z,989.98
2018-12-21T01:53:44.432Z,989.99
2018-12-21T01:54:44.603Z,989.97
2018-12-21T01:55:44.768Z,989.99
2018-12-21T01:56:44.928Z,989.94
2018-12-21T01:57:45.098Z,989.91
2018-12-21T01:58:45.260Z,989.94
2018-12-21T01:59:45.430Z,989.93
2018-12-21T02:00:45.598Z,989.85
2018-12-21T02:01:45.760Z,989.82
2018-12-21T02:02:45.920Z,989.83
2018-12-21T02:03:46.080Z,989.80
2018-12-21T02:04:46.240Z,989.82
2018-12-21T02:05:46.410Z,989.79
2018-12-21T02:06:46.576Z,989.76
2018-12-21T02:07:46.744Z,989.78
2018-12-21T02:08:46.917Z,989.80
2018-12-21T02:09:47.085Z,989.77
2018-12-21T02:10:47.242Z,989.77
2018-12-21T02:11:47.425Z,989.75
2018-12-21T02:12:47.588Z,989.74
2018-12-21T02:13:47.750Z,989.74
2018-12-21T02:14:47.923Z,989.73
2018-12-21T02:15:48.113Z,989.67
2018-12-21T02:16:48.275Z,989.67
2018-12-21T02:17:48.450Z,989.61
2018-12-21T02:18:48.620Z,989.63
2018-12-21T02:19:48.789Z,989.57
2018-12-21T02:20:48.953Z,989.60
2018-12-21T02:21:55.870Z,989.55
2018-12-21T02:22:49.292Z,989.56
2018-12-21T02:23:49.452Z,989.56
2018-12-21T02:24:49.623Z,989.59
2018-12-21T02:25:49.846Z,989.57
2018-12-21T02:26:49.879Z,989.59
2018-12-21T02:27:50.047Z,989.54
2018-12-21T02:28:50.217Z,989.57
2018-12-21T02:29:50.384Z,989.49
2018-12-21T02:30:50.546Z,989.51
2018-12-21T02:31:50.713Z,989.50
2018-12-21T02:32:50.874Z,989.47
2018-12-21T02:33:51.037Z,989.51
2018-12-21T02:34:51.205Z,989.46
2018-12-21T02:35:51.371Z,989.43
2018-12-21T02:36:51.533Z,989.46
2018-12-21T02:37:51.702Z,989.40
2018-12-21T02:38:51.864Z,989.37
2018-12-21T02:39:52.031Z,989.32
2018-12-21T02:40:52.197Z,989.33
2018-12-21T02:41:52.369Z,989.33
2018-12-21T02:42:52.541Z,989.30
2018-12-21T02:43:52.708Z,989.32
2018-12-21T02:44:52.880Z,989.31
2018-12-21T02:45:53.042Z,989.33
2018-12-21T02:46:53.206Z,989.28
2018-12-21T02:47:53.503Z,989.27
2018-12-21T02:48:53.529Z,989.28
2018-12-21T02:49:53.698Z,989.28
2018-12-21T02:50:53.849Z,989.26
2018-12-21T02:51:54.030Z,989.19
2018-12-21T02:52:54.183Z,989.18
2018-12-21T02:53:54.366Z,989.18
2018-12-21T02:54:54.538Z,989.17
2018-12-21T02:55:54.698Z,989.17
2018-12-21T02:56:54.869Z,989.21
2018-12-21T02:57:55.040Z,989.24
2018-12-21T02:58:55.213Z,989.23
2018-12-21T02:59:55.379Z,989.23
2018-12-21T03:00:55.545Z,989.22
2018-12-21T03:01:55.717Z,989.20
2018-12-21T03:02:55.873Z,989.13
2018-12-21T03:03:56.044Z,989.19
2018-12-21T03:04:56.213Z,989.16
2018-12-21T03:05:56.372Z,989.13
2018-12-21T03:06:56.542Z,989.10
2018-12-21T03:07:56.714Z,989.09
2018-12-21T03:08:56.884Z,989.09
2018-12-21T03:09:57.064Z,989.05
2018-12-21T03:10:57.224Z,989.06
2018-12-21T03:11:57.417Z,988.99
2018-12-21T03:12:57.576Z,989.02
2018-12-21T03:13:57.750Z,989.01
2018-12-21T03:14:57.950Z,988.95
2018-12-21T03:15:58.209Z,988.96
2018-12-21T03:16:58.254Z,988.92
2018-12-21T03:17:58.411Z,988.88
2018-12-21T03:18:58.566Z,988.88
2018-12-21T03:19:58.736Z,988.85
2018-12-21T03:20:58.897Z,988.81
2018-12-21T03:21:59.060Z,988.85
2018-12-21T03:22:59.230Z,988.80
2018-12-21T03:23:59.394Z,988.77
2018-12-21T03:24:59.557Z,988.78
2018-12-21T03:25:59.734Z,988.73
2018-12-21T03:26:59.906Z,988.73
2018-12-21T03:28:00.067Z,988.72
2018-12-21T03:29:00.238Z,988.67
2018-12-21T03:30:00.400Z,988.71
2018-12-21T03:31:00.567Z,988.66
2018-12-21T03:32:00.727Z,988.59
2018-12-21T03:33:00.901Z,988.62
2018-12-21T03:34:05.080Z,988.59
2018-12-21T03:35:01.190Z,988.55
2018-12-21T03:36:01.362Z,988.55
2018-12-21T03:37:01.525Z,988.55
2018-12-21T03:38:01.676Z,988.52
2018-12-21T03:39:01.847Z,988.54
2018-12-21T03:40:02.010Z,988.50
2018-12-21T03:41:02.180Z,988.52
2018-12-21T03:42:02.339Z,988.51
2018-12-21T03:43:02.512Z,988.52
2018-12-21T03:44:02.672Z,988.52
2018-12-21T03:45:02.861Z,988.53
2018-12-21T03:46:03.031Z,988.47
2018-12-21T03:47:03.199Z,988.53
2018-12-21T03:48:03.367Z,988.53
2018-12-21T03:49:03.545Z,988.54
2018-12-21T03:50:03.696Z,988.52
2018-12-21T03:51:03.861Z,988.55
2018-12-21T03:52:04.023Z,988.55
2018-12-21T03:53:04.194Z,988.50
2018-12-21T03:54:04.343Z,988.48
2018-12-21T03:55:04.515Z,988.51
2018-12-21T03:56:04.681Z,988.45
2018-12-21T03:57:04.845Z,988.43
2018-12-21T03:58:05.035Z,988.47
2018-12-21T03:59:05.202Z,988.46
2018-12-21T04:00:05.338Z,988.46
2018-12-21T04:01:05.518Z,988.52
2018-12-21T04:02:05.673Z,988.48
2018-12-21T04:03:05.839Z,988.52
2018-12-21T04:04:06.001Z,988.47
2018-12-21T04:05:06.169Z,988.48
2018-12-21T04:06:06.337Z,988.43
2018-12-21T04:07:06.503Z,988.48
2018-12-21T04:08:06.667Z,988.42
2018-12-21T04:09:06.828Z,988.42
2018-12-21T04:10:06.989Z,988.38
2018-12-21T04:11:07.165Z,988.34
2018-12-21T04:12:07.330Z,988.31
2018-12-21T04:13:07.494Z,988.33
2018-12-21T04:14:07.653Z,988.29
2018-12-21T04:15:07.810Z,988.28
2018-12-21T04:16:07.977Z,988.26
2018-12-21T04:17:08.136Z,988.24
2018-12-21T04:18:08.304Z,988.28
2018-12-21T04:19:08.468Z,988.27
2018-12-21T04:20:08.628Z,988.26
2018-12-21T04:21:08.797Z,988.29
2018-12-21T04:22:08.977Z,988.30
2018-12-21T04:23:09.134Z,988.31
2018-12-21T04:24:09.295Z,988.23
2018-12-21T04:25:09.458Z,988.25
2018-12-21T04:26:09.631Z,988.22
2018-12-21T04:27:09.794Z,988.22
2018-12-21T04:28:09.973Z,988.24
2018-12-21T04:29:10.131Z,988.23
2018-12-21T04:30:10.298Z,988.19
2018-12-21T04:31:10.460Z,988.13
2018-12-21T04:32:10.620Z,988.19
2018-12-21T04:33:10.778Z,988.20
2018-12-21T04:34:10.889Z,988.24
2018-12-21T04:35:11.062Z,988.22
2018-12-21T04:36:11.228Z,988.18
2018-12-21T04:37:11.393Z,988.18
2018-12-21T04:38:11.561Z,988.19
2018-12-21T04:39:11.730Z,988.16
2018-12-21T04:40:11.890Z,988.12
2018-12-21T04:41:12.050Z,988.16
2018-12-21T04:42:12.220Z,988.18
2018-12-21T04:43:12.388Z,988.15
2018-12-21T04:44:12.552Z,988.06
2018-12-21T04:45:12.711Z,988.03
2018-12-21T04:46:12.873Z,988.07
2018-12-21T04:47:13.233Z,988.09
2018-12-21T04:48:13.155Z,988.03
2018-12-21T04:49:13.300Z,988.05
2018-12-21T04:50:13.458Z,988.04
2018-12-21T04:51:13.623Z,988.06
2018-12-21T04:52:13.798Z,988.08
2018-12-21T04:53:13.961Z,988.07
2018-12-21T04:54:14.135Z,988.10
2018-12-21T04:55:14.291Z,988.08
2018-12-21T04:56:14.449Z,988.04
2018-12-21T04:57:14.621Z,988.01
2018-12-21T04:58:14.794Z,988.03
2018-12-21T04:59:14.959Z,988.01
2018-12-21T05:00:15.127Z,987.95
2018-12-21T05:01:15.295Z,987.94
2018-12-21T05:02:15.459Z,987.92
2018-12-21T05:03:15.626Z,987.92
2018-12-21T05:04:20.141Z,987.89
2018-12-21T05:05:15.972Z,987.85
2018-12-21T05:06:16.133Z,987.87
2018-12-21T05:07:16.298Z,987.83
2018-12-21T05:08:16.501Z,987.85
2018-12-21T05:09:16.659Z,987.86
2018-12-21T05:10:16.819Z,987.82
2018-12-21T05:11:16.995Z,987.80
2018-12-21T05:12:17.162Z,987.80
2018-12-21T05:13:17.323Z,987.84
2018-12-21T05:14:21.674Z,987.84
2018-12-21T05:15:22.027Z,987.85
2018-12-21T05:16:23.041Z,987.84
2018-12-21T05:17:21.619Z,987.76
2018-12-21T05:18:22.306Z,987.73
2018-12-21T05:19:18.471Z,987.78
2018-12-21T05:20:18.636Z,987.70
2018-12-21T05:21:18.804Z,987.71
2018-12-21T05:22:19.174Z,987.72
2018-12-21T05:23:19.078Z,987.63
2018-12-21T05:24:19.360Z,987.65
2018-12-21T05:25:19.400Z,987.63
2018-12-21T05:26:19.567Z,987.66
2018-12-21T05:27:20.624Z,987.57
2018-12-21T05:28:22.617Z,987.57
2018-12-21T05:29:23.107Z,987.57
2018-12-21T05:30:23.243Z,987.49
2018-12-21T05:31:28.064Z,987.52
2018-12-21T05:32:20.555Z,987.54
2018-12-21T05:33:20.674Z,987.45
2018-12-21T05:34:20.847Z,987.45
2018-12-21T05:35:21.018Z,987.44
2018-12-21T05:36:21.186Z,987.40
2018-12-21T05:37:21.351Z,987.34
2018-12-21T05:38:21.518Z,987.32
2018-12-21T05:39:21.688Z,987.26
2018-12-21T05:40:21.846Z,987.33
2018-12-21T05:41:22.027Z,987.27
2018-12-21T05:42:22.204Z,987.24
2018-12-21T05:43:22.364Z,987.21
2018-12-21T05:44:22.535Z,987.19
2018-12-21T05:45:22.704Z,987.22
2018-12-21T05:46:22.877Z,987.14
2018-12-21T05:47:23.043Z,987.16
2018-12-21T05:48:23.201Z,987.09
2018-12-21T05:49:23.374Z,987.12
2018-12-21T05:50:23.545Z,987.01
2018-12-21T05:51:23.719Z,987.05
2018-12-21T05:52:23.926Z,986.97
2018-12-21T05:53:24.054Z,986.98
2018-12-21T05:54:24.217Z,986.97
2018-12-21T05:55:24.379Z,986.97
2018-12-21T05:56:24.546Z,986.92
2018-12-21T05:57:24.712Z,986.88
2018-12-21T05:58:29.073Z,986.87
2018-12-21T05:59:29.953Z,986.81
2018-12-21T06:00:28.903Z,986.80
2018-12-21T06:01:25.252Z,986.76
2018-12-21T06:02:25.412Z,986.80
2018-12-21T06:03:25.582Z,986.78
2018-12-21T06:04:25.767Z,986.81
2018-12-21T06:05:25.943Z,986.80
2018-12-21T06:06:26.107Z,986.77
2018-12-21T06:07:26.277Z,986.72
2018-12-21T06:08:26.452Z,986.76
2018-12-21T06:09:26.617Z,986.67
2018-12-21T06:10:26.780Z,986.66
2018-12-21T06:11:26.956Z,986.66
2018-12-21T06:12:27.119Z,986.61
2018-12-21T06:13:27.285Z,986.61
2018-12-21T06:14:27.459Z,986.57
2018-12-21T06:15:27.625Z,986.56
2018-12-21T06:16:27.788Z,986.55
2018-12-21T06:17:27.959Z,986.51
2018-12-21T06:18:28.115Z,986.53
2018-12-21T06:19:28.286Z,986.45
2018-12-21T06:20:28.444Z,986.42
2018-12-21T06:21:28.628Z,986.42
2018-12-21T06:22:28.788Z,986.47
2018-12-21T06:23:28.951Z,986.45
2018-12-21T06:24:29.118Z,986.40
2018-12-21T06:25:29.289Z,986.44
2018-12-21T06:26:29.452Z,986.42
2018-12-21T06:27:29.617Z,986.34
2018-12-21T06:28:29.795Z,986.33
2018-12-21T06:29:29.960Z,986.35
2018-12-21T06:30:30.121Z,986.31
2018-12-21T06:31:30.290Z,986.35
2018-12-21T06:32:30.456Z,986.33
2018-12-21T06:33:30.613Z,986.33
2018-12-21T06:34:30.789Z,986.38
2018-12-21T06:35:30.960Z,986.39
2018-12-21T06:36:31.138Z,986.36
2018-12-21T06:37:31.284Z,986.31
2018-12-21T06:38:31.460Z,986.35
2018-12-21T06:39:31.617Z,986.35
2018-12-21T06:40:31.794Z,986.35
2018-12-21T06:41:31.967Z,986.30
2018-12-21T06:42:32.137Z,986.32
2018-12-21T06:43:32.305Z,986.37
2018-12-21T06:44:32.491Z,986.26
2018-12-21T06:45:32.643Z,986.26
2018-12-21T06:46:32.799Z,986.29
2018-12-21T06:47:32.968Z,986.27
2018-12-21T06:48:33.132Z,986.28
2018-12-21T06:49:33.302Z,986.28
2018-12-21T06:50:33.470Z,986.32
2018-12-21T06:51:33.639Z,986.25
2018-12-21T06:52:33.823Z,986.26
2018-12-21T06:53:33.972Z,986.26
2018-12-21T06:54:34.138Z,986.20
2018-12-21T06:55:34.301Z,986.18
2018-12-21T06:56:34.472Z,986.13
2018-12-21T06:57:34.642Z,986.14
2018-12-21T06:58:34.819Z,986.16
2018-12-21T06:59:34.973Z,986.10
2018-12-21T07:00:35.140Z,986.13
2018-12-21T07:01:35.335Z,986.13
2018-12-21T07:02:35.500Z,986.10
2018-12-21T07:03:35.667Z,986.13
2018-12-21T07:04:36.055Z,986.09
2018-12-21T07:05:36.050Z,986.09
2018-12-21T07:06:36.211Z,986.10
2018-12-21T07:07:36.368Z,986.08
2018-12-21T07:08:36.730Z,986.10
2018-12-21T07:09:36.905Z,986.11
2018-12-21T07:10:36.830Z,986.08
2018-12-21T07:11:37.147Z,986.05
2018-12-21T07:12:37.185Z,986.06
2018-12-21T07:13:37.352Z,986.06
2018-12-21T07:14:37.514Z,985.95
2018-12-21T07:15:37.695Z,985.89
2018-12-21T07:16:38.045Z,985.87
2018-12-21T07:17:37.978Z,985.88
2018-12-21T07:18:38.149Z,985.81
2018-12-21T07:19:38.335Z,985.81
2018-12-21T07:20:38.516Z,985.78
2018-12-21T07:21:38.648Z,985.70
2018-12-21T07:22:38.827Z,985.71
2018-12-21T07:23:38.980Z,985.70
2018-12-21T07:24:39.161Z,985.65
2018-12-21T07:25:39.587Z,985.60
2018-12-21T07:26:39.538Z,985.59
2018-12-21T07:27:39.700Z,985.56
2018-12-21T07:28:39.863Z,985.53
2018-12-21T07:29:40.035Z,985.46
2018-12-21T07:30:40.230Z,985.36
2018-12-21T07:31:40.304Z,985.33
2018-12-21T07:32:40.476Z,985.24
2018-12-21T07:33:40.702Z,985.19
2018-12-21T07:34:40.847Z,985.19
2018-12-21T07:35:41.015Z,985.13
2018-12-21T07:36:41.185Z,985.04
2018-12-21T07:37:41.354Z,985.05
2018-12-21T07:38:41.527Z,984.98
2018-12-21T07:39:41.701Z,984.92
2018-12-21T07:40:41.856Z,984.89
2018-12-21T07:41:42.028Z,984.90
2018-12-21T07:42:42.190Z,984.88
2018-12-21T07:43:42.384Z,984.92
2018-12-21T07:44:42.782Z,984.92
2018-12-21T07:45:42.650Z,984.92
2018-12-21T07:46:42.815Z,984.89
2018-12-21T07:47:42.983Z,984.86
2018-12-21T07:48:43.162Z,984.84
2018-12-21T07:49:43.333Z,984.81
2018-12-21T07:50:43.485Z,984.80
2018-12-21T07:51:43.705Z,984.77
2018-12-21T07:52:43.873Z,984.72
2018-12-21T07:53:44.022Z,984.73
2018-12-21T07:54:44.191Z,984.67
2018-12-21T07:55:44.364Z,984.69
2018-12-21T07:56:44.543Z,984.58
2018-12-21T07:57:44.701Z,984.55
2018-12-21T07:58:44.853Z,984.48
2018-12-21T07:59:45.032Z,984.49
2018-12-21T08:00:45.168Z,984.40
2018-12-21T08:01:45.984Z,984.37
2018-12-21T08:02:45.430Z,984.35
2018-12-21T08:03:45.604Z,984.37
2018-12-21T08:04:45.769Z,984.38
2018-12-21T08:05:45.933Z,984.34
2018-12-21T08:06:46.102Z,984.38
2018-12-21T08:07:46.272Z,984.29
2018-12-21T08:08:46.429Z,984.27
2018-12-21T08:09:46.609Z,984.33
2018-12-21T08:10:46.799Z,984.30
2018-12-21T08:11:46.998Z,984.20
2018-12-21T08:12:47.069Z,984.23
2018-12-21T08:13:47.236Z,984.20
2018-12-21T08:14:47.520Z,984.20
2018-12-21T08:15:47.559Z,984.24
2018-12-21T08:16:47.737Z,984.14
2018-12-21T08:17:47.927Z,984.14
2018-12-21T08:18:48.058Z,984.16
2018-12-21T08:19:48.223Z,984.14
2018-12-21T08:20:48.460Z,984.14
2018-12-21T08:21:48.569Z,984.15
2018-12-21T08:22:48.755Z,984.11
2018-12-21T08:23:48.927Z,984.14
2018-12-21T08:24:49.090Z,984.16
2018-12-21T08:25:49.305Z,984.17
2018-12-21T08:26:49.500Z,984.14
2018-12-21T08:27:49.667Z,984.17
2018-12-21T08:28:49.903Z,984.15
2018-12-21T08:29:49.973Z,984.15
2018-12-21T08:30:50.162Z,984.15
2018-12-21T08:31:50.334Z,984.15
2018-12-21T08:32:50.585Z,984.15
2018-12-21T08:33:50.618Z,984.06
2018-12-21T08:34:50.785Z,984.07
2018-12-21T08:35:50.950Z,983.99
2018-12-21T08:36:51.116Z,984.01
2018-12-21T08:37:51.273Z,983.96
2018-12-21T08:38:51.450Z,983.97
2018-12-21T08:39:51.646Z,983.96
2018-12-21T08:40:51.821Z,983.90
2018-12-21T08:41:51.974Z,983.94
2018-12-21T08:42:52.170Z,983.94
2018-12-21T08:43:52.307Z,983.87
2018-12-21T08:44:52.473Z,983.89
2018-12-21T08:45:52.641Z,983.86
2018-12-21T08:46:52.828Z,983.86
2018-12-21T08:47:52.977Z,983.78
2018-12-21T08:48:53.158Z,983.79
2018-12-21T08:49:53.303Z,983.69
2018-12-21T08:50:53.470Z,983.68
2018-12-21T08:51:53.638Z,983.72
2018-12-21T08:52:53.801Z,983.67
2018-12-21T08:53:53.974Z,983.63
2018-12-21T08:54:54.127Z,983.60
2018-12-21T08:55:54.288Z,983.62
2018-12-21T08:56:54.463Z,983.61
2018-12-21T08:57:54.641Z,983.57
2018-12-21T08:58:54.817Z,983.64
2018-12-21T08:59:54.973Z,983.53
2018-12-21T09:00:55.150Z,983.50
2018-12-21T09:01:55.327Z,983.45
2018-12-21T09:02:55.482Z,983.48
2018-12-21T09:03:55.672Z,983.45
2018-12-21T09:04:57.147Z,983.45
2018-12-21T09:05:57.110Z,983.47
2018-12-21T09:06:57.134Z,983.43
2018-12-21T09:07:56.351Z,983.31
2018-12-21T09:08:56.513Z,983.36
2018-12-21T09:09:56.683Z,983.35
2018-12-21T09:10:56.853Z,983.39
2018-12-21T09:11:57.025Z,983.33
2018-12-21T09:12:57.205Z,983.28
2018-12-21T09:13:57.384Z,983.30
2018-12-21T09:14:57.558Z,983.29
2018-12-21T09:15:57.719Z,983.28
2018-12-21T09:16:57.913Z,983.26
2018-12-21T09:18:01.118Z,983.23
2018-12-21T09:19:00.259Z,983.20
2018-12-21T09:19:58.980Z,983.21
2018-12-21T09:20:58.533Z,983.24
2018-12-21T09:21:58.689Z,983.17
2018-12-21T09:22:58.981Z,983.19
2018-12-21T09:24:01.166Z,983.12
2018-12-21T09:24:59.147Z,983.12
2018-12-21T09:25:59.288Z,983.14
2018-12-21T09:26:59.505Z,983.05
2018-12-21T09:27:59.663Z,983.03
2018-12-21T09:28:59.832Z,983.02
2018-12-21T09:30:00.014Z,982.99
2018-12-21T09:31:00.183Z,982.98
2018-12-21T09:32:04.979Z,982.98
2018-12-21T09:33:00.456Z,982.95
2018-12-21T09:34:00.635Z,982.84
2018-12-21T09:35:00.796Z,982.86
2018-12-21T09:36:00.971Z,982.81
2018-12-21T09:37:01.135Z,982.75
2018-12-21T09:38:01.338Z,982.67
2018-12-21T09:39:01.409Z,982.67
2018-12-21T09:40:01.597Z,982.63
2018-12-21T09:41:01.745Z,982.59
2018-12-21T09:42:01.913Z,982.53
2018-12-21T09:43:02.103Z,982.55
2018-12-21T09:44:02.249Z,982.49
2018-12-21T09:45:02.433Z,982.48
2018-12-21T09:46:02.659Z,982.42
2018-12-21T09:47:02.808Z,982.42
2018-12-21T09:48:02.963Z,982.31
2018-12-21T09:49:03.209Z,982.32
2018-12-21T09:50:03.258Z,982.29
2018-12-21T09:51:03.354Z,982.28
2018-12-21T09:52:03.518Z,982.22
2018-12-21T09:53:03.674Z,982.16
2018-12-21T09:54:09.931Z,982.14
2018-12-21T09:55:03.991Z,982.11
2018-12-21T09:56:04.162Z,982.02
2018-12-21T09:57:04.315Z,982.00
2018-12-21T09:58:04.513Z,982.01
2018-12-21T09:59:04.676Z,982.01
2018-12-21T10:00:04.852Z,981.94
2018-12-21T10:01:05.007Z,981.95
2018-12-21T10:02:05.295Z,981.96
2018-12-21T10:03:05.278Z,981.91
2018-12-21T10:04:05.454Z,981.86
2018-12-21T10:05:05.616Z,981.82
2018-12-21T10:06:05.784Z,981.72
2018-12-21T10:07:05.944Z,981.66
2018-12-21T10:08:06.110Z,981.60
2018-12-21T10:09:06.300Z,981.66
2018-12-21T10:10:06.464Z,981.51
2018-12-21T10:11:06.630Z,981.56
2018-12-21T10:12:06.795Z,981.48
2018-12-21T10:13:08.548Z,981.46
2018-12-21T10:14:07.405Z,981.49
2018-12-21T10:15:07.314Z,981.36
2018-12-21T10:16:07.627Z,981.34
2018-12-21T10:17:07.666Z,981.32
2018-12-21T10:18:07.836Z,981.33
2018-12-21T10:19:08.020Z,981.27
2018-12-21T10:20:08.120Z,981.19
2018-12-21T10:21:08.287Z,981.19
2018-12-21T10:22:08.475Z,981.09
2018-12-21T10:23:08.614Z,980.98
2018-12-21T10:24:08.808Z,980.92
2018-12-21T10:25:08.987Z,980.95
2018-12-21T10:26:09.208Z,980.91
2018-12-21T10:27:09.358Z,981.01
2018-12-21T10:28:09.518Z,980.98
2018-12-21T10:29:09.703Z,981.00
2018-12-21T10:30:09.864Z,980.93
2018-12-21T10:31:10.158Z,980.85
2018-12-21T10:32:10.700Z,980.85
2018-12-21T10:33:10.414Z,980.84
2018-12-21T10:34:10.614Z,980.83
2018-12-21T10:35:11.303Z,980.76
2018-12-21T10:36:12.025Z,980.75
2018-12-21T10:37:11.982Z,980.67
2018-12-21T10:38:11.306Z,980.72
2018-12-21T10:39:11.315Z,980.75
2018-12-21T10:40:11.528Z,980.68
2018-12-21T10:41:11.759Z,980.61
2018-12-21T10:42:13.865Z,980.56
2018-12-21T10:43:12.039Z,980.56
2018-12-21T10:44:12.231Z,980.56
2018-12-21T10:45:12.683Z,980.49
2018-12-21T10:46:12.538Z,980.44
2018-12-21T10:47:12.726Z,980.41
2018-12-21T10:48:13.662Z,980.30
2018-12-21T10:49:13.068Z,980.33
2018-12-21T10:50:13.408Z,980.29
2018-12-21T10:51:13.552Z,980.30
2018-12-21T10:52:14.122Z,980.28
2018-12-21T10:53:14.043Z,980.22
2018-12-21T10:54:13.886Z,980.21
2018-12-21T10:55:14.312Z,980.15
2018-12-21T10:56:14.237Z,980.18
2018-12-21T10:57:14.397Z,980.15
2018-12-21T10:58:14.599Z,980.20
2018-12-21T10:59:21.094Z,980.24
2018-12-21T11:00:14.928Z,980.28
2018-12-21T11:01:15.087Z,980.29
2018-12-21T11:02:15.259Z,980.19
2018-12-21T11:03:15.415Z,980.13
2018-12-21T11:04:15.606Z,980.06
2018-12-21T11:05:15.749Z,979.98
2018-12-21T11:06:15.910Z,979.86
2018-12-21T11:07:16.088Z,979.82
2018-12-21T11:08:16.177Z,979.84
2018-12-21T11:09:16.346Z,979.83
2018-12-21T11:10:16.509Z,979.80
2018-12-21T11:11:16.730Z,979.86
2018-12-21T11:12:16.793Z,979.91
2018-12-21T11:13:16.958Z,979.91
2018-12-21T11:14:19.603Z,979.81
2018-12-21T11:15:25.205Z,979.70
2018-12-21T11:16:17.428Z,979.75
2018-12-21T11:17:17.647Z,979.67
2018-12-21T11:18:17.727Z,979.65
2018-12-21T11:19:17.904Z,979.63
2018-12-21T11:20:18.106Z,979.63
2018-12-21T11:21:18.266Z,979.69
2018-12-21T11:22:19.983Z,979.74
2018-12-21T11:23:18.535Z,979.79
2018-12-21T11:24:18.700Z,979.71
2018-12-21T11:25:18.874Z,979.65
2018-12-21T11:26:19.041Z,979.55
2018-12-21T11:27:19.213Z,979.56
2018-12-21T11:28:25.399Z,979.51
2018-12-21T11:29:19.543Z,979.55
2018-12-21T11:30:19.741Z,979.54
2018-12-21T11:31:19.873Z,979.51
2018-12-21T11:32:20.043Z,979.51
2018-12-21T11:33:20.223Z,979.52
2018-12-21T11:34:20.375Z,979.47
2018-12-21T11:35:20.531Z,979.55
2018-12-21T11:36:20.706Z,979.46
2018-12-21T11:37:20.864Z,979.43
2018-12-21T11:38:21.028Z,979.39
2018-12-21T11:39:21.195Z,979.33
2018-12-21T11:40:21.383Z,979.25
2018-12-21T11:41:21.557Z,979.28
2018-12-21T11:42:21.712Z,979.22
2018-12-21T11:43:21.913Z,979.26
2018-12-21T11:44:22.171Z,979.29
2018-12-21T11:45:24.246Z,979.28
2018-12-21T11:46:22.465Z,979.28
2018-12-21T11:47:22.804Z,979.25
2018-12-21T11:48:22.787Z,979.25
2018-12-21T11:49:22.978Z,979.17
2018-12-21T11:50:23.157Z,979.17
2018-12-21T11:51:23.329Z,979.13
2018-12-21T11:52:23.491Z,979.13
2018-12-21T11:53:23.667Z,979.07
2018-12-21T11:54:23.828Z,979.22
2018-12-21T11:55:24.029Z,979.14
2018-12-21T11:56:24.242Z,979.10
2018-12-21T11:57:24.390Z,979.10
2018-12-21T11:58:24.544Z,979.12
2018-12-21T11:59:24.735Z,979.08
2018-12-21T12:00:24.905Z,979.08
2018-12-21T12:01:25.065Z,979.12
2018-12-21T12:02:25.421Z,979.04
2018-12-21T12:03:25.329Z,979.06
2018-12-21T12:04:25.508Z,979.06
2018-12-21T12:05:25.695Z,978.99
2018-12-21T12:06:25.886Z,979.02
2018-12-21T12:07:26.036Z,978.98
2018-12-21T12:08:26.206Z,978.95
2018-12-21T12:09:26.374Z,979.00
2018-12-21T12:10:26.540Z,979.06
2018-12-21T12:11:26.706Z,978.99
2018-12-21T12:12:26.887Z,978.98
2018-12-21T12:13:27.053Z,979.01
2018-12-21T12:14:27.223Z,979.04
2018-12-21T12:15:28.629Z,978.96
2018-12-21T12:16:27.592Z,979.02
2018-12-21T12:17:27.762Z,978.98
2018-12-21T12:18:27.919Z,978.90
2018-12-21T12:19:28.118Z,978.93
2018-12-21T12:20:28.314Z,978.94
2018-12-21T12:21:28.459Z,978.92
2018-12-21T12:22:28.640Z,978.97
2018-12-21T12:23:28.794Z,978.98
2018-12-21T12:24:29.160Z,978.96
2018-12-21T12:25:29.159Z,978.91
2018-12-21T12:26:29.329Z,978.99
2018-12-21T12:27:29.534Z,978.94
2018-12-21T12:28:29.707Z,978.95
2018-12-21T12:29:29.881Z,978.99
2018-12-21T12:30:30.086Z,978.92